createdAt,value
2023-10-26T00:02:16.404Z,24.65
2023-10-26T00:04:43.271Z,22.27
2023-10-26T00:07:10.629Z,19.85
2023-10-26T00:09:37.313Z,21.35
2023-10-26T00:12:04.404Z,20.10
2023-10-26T00:14:31.242Z,20.02
2023-10-26T00:16:58.019Z,18.38
2023-10-26T00:19:24.814Z,16.45
2023-10-26T00:21:53.446Z,16.38
2023-10-26T00:24:20.229Z,18.00
2023-10-26T00:26:47.044Z,15.77
2023-10-26T00:29:13.883Z,16.27
2023-10-26T00:31:40.575Z,15.35
2023-10-26T00:34:07.434Z,16.38
2023-10-26T00:36:34.170Z,16.25
2023-10-26T00:39:01.286Z,15.85
2023-10-26T00:41:27.983Z,17.85
2023-10-26T00:43:54.809Z,17.33
2023-10-26T00:46:21.693Z,18.08
2023-10-26T00:48:48.611Z,19.75
2023-10-26T00:51:15.661Z,16.05
2023-10-26T00:53:42.822Z,25.77
2023-10-26T00:56:11.325Z,23.58
2023-10-26T00:58:38.800Z,24.70
2023-10-26T01:01:05.972Z,24.60
2023-10-26T01:03:33.763Z,28.00
2023-10-26T01:06:00.677Z,37.08
2023-10-26T01:08:27.413Z,44.85
2023-10-26T01:10:55.043Z,41.17
2023-10-26T01:13:21.803Z,41.78
2023-10-26T01:15:48.645Z,33.05
2023-10-26T01:18:16.830Z,42.20
2023-10-26T01:20:43.893Z,71.07
2023-10-26T01:23:11.232Z,80.90
2023-10-26T01:25:38.199Z,74.20
2023-10-26T01:28:05.445Z,71.80
2023-10-26T01:30:33.988Z,87.00
2023-10-26T01:33:01.242Z,113.38
2023-10-26T01:35:28.065Z,120.70
2023-10-26T01:37:54.814Z,146.75
2023-10-26T01:40:22.666Z,175.63
2023-10-26T01:42:49.508Z,186.57
2023-10-26T01:45:16.341Z,151.80
2023-10-26T01:47:43.873Z,108.07
2023-10-26T01:50:11.545Z,96.93
2023-10-26T01:52:38.332Z,95.68
2023-10-26T01:55:05.819Z,108.13
2023-10-26T01:57:32.513Z,175.20
2023-10-26T01:59:59.337Z,134.30
2023-10-26T02:02:26.229Z,140.35
2023-10-26T02:04:52.936Z,115.03
2023-10-26T02:07:19.849Z,121.40
2023-10-26T02:09:46.581Z,96.57
2023-10-26T02:12:13.647Z,91.30
2023-10-26T02:14:41.016Z,93.07
2023-10-26T02:17:07.747Z,91.85
2023-10-26T02:19:34.579Z,77.30
2023-10-26T02:22:01.454Z,77.95
2023-10-26T02:24:28.526Z,71.32
2023-10-26T02:26:55.858Z,76.32
2023-10-26T02:29:22.676Z,83.07
2023-10-26T02:31:51.018Z,69.53
2023-10-26T02:34:17.780Z,61.20
2023-10-26T02:36:44.492Z,65.20
2023-10-26T02:39:11.231Z,70.15
2023-10-26T02:41:38.502Z,63.67
2023-10-26T02:44:05.367Z,63.83
2023-10-26T02:46:32.110Z,61.60
2023-10-26T02:48:59.333Z,55.88
2023-10-26T02:51:26.154Z,56.22
2023-10-26T02:53:52.868Z,56.45
2023-10-26T02:56:21.044Z,53.17
2023-10-26T02:58:48.793Z,57.63
2023-10-26T03:01:15.513Z,56.08
2023-10-26T03:03:43.618Z,46.42
2023-10-26T03:06:10.725Z,51.45
2023-10-26T03:08:37.455Z,48.92
2023-10-26T03:11:04.433Z,52.38
2023-10-26T03:13:31.139Z,51.28
2023-10-26T03:15:58.524Z,54.95
2023-10-26T03:18:25.296Z,54.10
2023-10-26T03:20:52.176Z,46.78
2023-10-26T03:23:19.408Z,48.50
2023-10-26T03:25:46.383Z,41.63
2023-10-26T03:28:13.510Z,41.58
2023-10-26T03:30:40.209Z,47.33
2023-10-26T03:33:06.975Z,43.83
2023-10-26T03:35:36.945Z,46.35
2023-10-26T03:38:03.747Z,42.50
2023-10-26T03:40:33.372Z,46.17
2023-10-26T03:43:00.352Z,41.35
2023-10-26T03:45:29.712Z,47.88
2023-10-26T03:47:56.619Z,48.47
2023-10-26T03:50:23.943Z,50.13
2023-10-26T03:52:50.652Z,53.60
2023-10-26T03:55:18.548Z,57.38
2023-10-26T03:57:46.351Z,61.42
2023-10-26T04:00:13.787Z,63.83
2023-10-26T04:02:40.629Z,58.08
2023-10-26T04:05:07.708Z,71.28
2023-10-26T04:07:35.234Z,61.30
2023-10-26T04:10:06.389Z,64.53
2023-10-26T04:12:33.122Z,69.78
2023-10-26T04:14:59.862Z,69.47
2023-10-26T04:17:27.024Z,77.35
2023-10-26T04:19:53.806Z,71.93
2023-10-26T04:22:20.709Z,77.75
2023-10-26T04:24:47.462Z,74.28
2023-10-26T04:27:14.491Z,73.80
2023-10-26T04:29:41.309Z,76.45
2023-10-26T04:32:09.268Z,80.68
2023-10-26T04:34:36.081Z,79.53
2023-10-26T04:37:04.040Z,81.50
2023-10-26T04:39:30.899Z,83.45
2023-10-26T04:41:57.738Z,63.08
2023-10-26T04:44:24.620Z,66.07
2023-10-26T04:46:52.498Z,90.57
2023-10-26T04:49:20.174Z,76.18
2023-10-26T04:51:46.915Z,83.88
2023-10-26T04:54:13.647Z,87.20
2023-10-26T04:56:40.402Z,95.53
2023-10-26T04:59:07.093Z,92.80
2023-10-26T05:01:33.950Z,98.78
2023-10-26T05:04:00.734Z,103.43
2023-10-26T05:06:27.626Z,107.65
2023-10-26T05:08:54.520Z,109.50
2023-10-26T05:11:21.769Z,127.40
2023-10-26T05:13:49.970Z,126.63
2023-10-26T05:16:16.735Z,149.70
2023-10-26T05:18:43.507Z,141.95
2023-10-26T05:21:10.350Z,156.93
2023-10-26T05:23:38.391Z,180.95
2023-10-26T05:26:05.176Z,185.00
2023-10-26T05:28:31.939Z,127.70
2023-10-26T05:30:59.372Z,169.65
2023-10-26T05:33:26.586Z,136.82
2023-10-26T05:35:53.394Z,165.00
2023-10-26T05:38:20.961Z,154.65
2023-10-26T05:40:56.581Z,188.77
2023-10-26T05:43:26.252Z,260.42
2023-10-26T05:45:53.920Z,241.45
2023-10-26T05:48:20.888Z,497.95
2023-10-26T05:50:47.710Z,369.38
2023-10-26T05:53:14.451Z,332.65
2023-10-26T05:55:41.204Z,355.17
2023-10-26T05:58:10.194Z,481.00
2023-10-26T06:00:39.564Z,375.23
2023-10-26T06:03:06.590Z,388.45
2023-10-26T06:05:33.607Z,453.58
2023-10-26T06:08:00.294Z,515.38
2023-10-26T06:10:27.005Z,592.55
2023-10-26T06:12:53.719Z,691.83
2023-10-26T06:15:20.624Z,573.67
2023-10-26T06:17:47.380Z,598.75
2023-10-26T06:20:15.072Z,716.80
2023-10-26T06:22:43.059Z,573.85
2023-10-26T06:25:10.653Z,549.08
2023-10-26T06:27:37.558Z,641.65
2023-10-26T06:30:05.039Z,663.30
2023-10-26T06:32:31.781Z,609.55
2023-10-26T06:34:58.547Z,774.78
2023-10-26T06:37:25.365Z,289.80
2023-10-26T06:39:52.069Z,361.70
2023-10-26T06:42:18.926Z,109.20
2023-10-26T06:44:51.897Z,55.58
2023-10-26T06:47:18.834Z,106.55
2023-10-26T06:49:45.582Z,128.60
2023-10-26T06:52:12.347Z,124.53
2023-10-26T06:54:40.642Z,105.47
2023-10-26T06:57:07.663Z,109.57
2023-10-26T06:59:34.424Z,96.32
2023-10-26T07:02:07.380Z,134.95
2023-10-26T07:04:36.966Z,86.88
2023-10-26T07:07:04.314Z,75.40
2023-10-26T07:09:31.161Z,79.35
2023-10-26T07:11:57.886Z,69.60
2023-10-26T07:14:25.392Z,83.65
2023-10-26T07:16:52.216Z,76.28
2023-10-26T07:19:18.924Z,60.50
2023-10-26T07:21:45.731Z,89.55
2023-10-26T07:24:12.989Z,71.15
2023-10-26T07:26:39.828Z,82.55
2023-10-26T07:29:06.665Z,92.00
2023-10-26T07:31:33.676Z,81.57
2023-10-26T07:34:00.473Z,89.05
2023-10-26T07:36:31.373Z,113.72
2023-10-26T07:39:44.645Z,130.05
2023-10-26T07:42:06.984Z,98.18
2023-10-26T07:44:34.768Z,110.22
2023-10-26T07:47:02.094Z,285.08
2023-10-26T07:49:28.802Z,402.92
2023-10-26T07:51:56.069Z,502.08
2023-10-26T07:54:22.811Z,574.22
2023-10-26T07:56:50.289Z,607.20
2023-10-26T07:59:17.019Z,166.35
2023-10-26T08:01:44.108Z,92.60
2023-10-26T08:04:11.389Z,91.75
2023-10-26T08:06:38.122Z,59.97
2023-10-26T08:09:06.242Z,66.55
2023-10-26T08:11:32.974Z,66.85
2023-10-26T08:14:00.063Z,85.00
2023-10-26T08:16:39.159Z,102.00
2023-10-26T08:19:11.919Z,116.50
2023-10-26T08:21:38.732Z,109.18
2023-10-26T08:24:05.710Z,122.00
2023-10-26T08:26:32.916Z,122.72
2023-10-26T08:31:35.902Z,86.53
2023-10-26T08:34:02.936Z,115.85
2023-10-26T08:36:29.648Z,100.47
2023-10-26T08:38:56.502Z,87.82
2023-10-26T08:41:23.357Z,76.13
2023-10-26T08:43:50.392Z,64.82
2023-10-26T08:46:19.612Z,72.05
2023-10-26T08:48:49.336Z,71.65
2023-10-26T08:51:16.501Z,68.00
2023-10-26T08:53:43.497Z,76.40
2023-10-26T08:56:12.309Z,64.30
2023-10-26T08:58:39.583Z,61.50
2023-10-26T09:01:06.878Z,62.67
2023-10-26T09:03:37.385Z,62.00
2023-10-26T09:06:04.522Z,52.13
2023-10-26T09:08:32.131Z,52.42
2023-10-26T09:10:58.965Z,53.42
2023-10-26T09:13:30.232Z,54.42
2023-10-26T09:15:59.800Z,54.50
2023-10-26T09:18:28.435Z,53.85
2023-10-26T09:21:09.946Z,66.57
2023-10-26T09:23:41.147Z,63.03
2023-10-26T09:26:09.498Z,52.90
2023-10-26T09:28:54.546Z,57.97
2023-10-26T09:31:23.050Z,53.20
2023-10-26T09:33:50.812Z,53.30
2023-10-26T09:36:19.863Z,51.55
2023-10-26T09:38:48.719Z,48.97
2023-10-26T09:41:20.658Z,50.72
2023-10-26T09:43:48.205Z,50.88
2023-10-26T09:46:16.503Z,47.75
2023-10-26T09:48:43.624Z,45.80
2023-10-26T09:51:15.518Z,43.47
2023-10-26T09:53:44.931Z,37.28
2023-10-26T09:56:21.678Z,29.70
2023-10-26T09:58:49.278Z,36.75
2023-10-26T10:01:38.671Z,33.95
2023-10-26T10:04:07.118Z,37.75
2023-10-26T10:06:59.674Z,40.00
2023-10-26T10:09:28.207Z,34.47
2023-10-26T10:12:07.363Z,33.83
2023-10-26T10:14:49.702Z,33.40
2023-10-26T10:17:18.190Z,27.88
2023-10-26T10:19:48.602Z,30.70
2023-10-26T10:22:40.006Z,32.72
2023-10-26T10:25:12.954Z,26.38
2023-10-26T10:27:41.698Z,28.88
2023-10-26T10:30:14.606Z,23.83
2023-10-26T10:32:53.136Z,23.95
2023-10-26T10:35:23.109Z,23.88
2023-10-26T10:38:15.235Z,23.85
2023-10-26T10:41:02.805Z,23.17
2023-10-26T10:43:50.415Z,23.17
2023-10-26T10:46:28.179Z,21.80
2023-10-26T10:49:05.367Z,21.83
2023-10-26T10:51:40.856Z,21.52
2023-10-26T10:54:20.504Z,25.92
2023-10-26T10:56:56.955Z,20.63
2023-10-26T10:59:30.661Z,20.63
2023-10-26T11:02:14.211Z,23.27
2023-10-26T11:05:12.840Z,21.75
2023-10-26T11:07:44.981Z,19.63
2023-10-26T11:10:12.028Z,22.75
2023-10-26T11:12:38.853Z,23.70
2023-10-26T11:15:07.264Z,23.55
2023-10-26T11:17:35.050Z,26.05
2023-10-26T11:20:01.916Z,21.63
2023-10-26T11:22:29.230Z,29.95
2023-10-26T11:24:56.091Z,27.58
2023-10-26T11:27:23.328Z,31.00
2023-10-26T11:30:06.616Z,28.10
2023-10-26T11:32:34.020Z,32.13
2023-10-26T11:35:17.434Z,31.13
2023-10-26T11:37:46.714Z,30.65
2023-10-26T11:40:15.359Z,31.63
2023-10-26T11:42:49.193Z,27.73
2023-10-26T11:45:24.033Z,29.90
2023-10-26T11:47:55.773Z,27.17
2023-10-26T11:50:23.670Z,28.30
2023-10-26T11:52:52.146Z,26.58
2023-10-26T11:55:19.444Z,31.48
2023-10-26T11:57:47.183Z,29.25
2023-10-26T12:00:15.774Z,28.38
2023-10-26T12:02:43.631Z,33.83
2023-10-26T12:05:16.571Z,48.72
2023-10-26T12:07:49.988Z,33.95
2023-10-26T12:10:19.115Z,37.30
2023-10-26T12:12:46.773Z,37.40
2023-10-26T12:15:13.610Z,34.78
2023-10-26T12:17:40.542Z,32.58
2023-10-26T12:20:09.184Z,28.73
2023-10-26T12:22:36.546Z,32.92
2023-10-26T12:25:07.786Z,32.97
2023-10-26T12:28:18.068Z,29.02
2023-10-26T12:30:25.319Z,30.60
2023-10-26T12:32:52.093Z,28.58
2023-10-26T12:35:18.869Z,35.67
2023-10-26T12:37:46.024Z,29.00
2023-10-26T12:40:12.817Z,29.85
2023-10-26T12:42:40.520Z,32.17
2023-10-26T12:45:08.019Z,22.20
2023-10-26T12:47:34.781Z,19.88
2023-10-26T12:50:02.287Z,23.17
2023-10-26T12:52:29.044Z,24.92
2023-10-26T12:54:55.808Z,25.35
2023-10-26T12:57:22.600Z,28.30
2023-10-26T12:59:49.856Z,27.65
2023-10-26T13:02:16.668Z,30.30
2023-10-26T13:04:43.819Z,30.15
2023-10-26T13:07:10.906Z,28.90
2023-10-26T13:09:42.078Z,31.23
2023-10-26T13:12:09.618Z,31.73
2023-10-26T13:14:36.305Z,36.25
2023-10-26T13:17:05.664Z,39.75
2023-10-26T13:19:32.559Z,39.75
2023-10-26T13:21:59.426Z,43.40
2023-10-26T13:24:26.427Z,44.05
2023-10-26T13:26:53.255Z,40.92
2023-10-26T13:29:20.323Z,44.47
2023-10-26T13:31:47.038Z,49.08
2023-10-26T13:34:14.118Z,56.28
2023-10-26T13:36:40.848Z,49.35
2023-10-26T13:39:07.656Z,61.15
2023-10-26T13:41:34.426Z,65.45
2023-10-26T13:44:01.170Z,66.85
2023-10-26T13:46:29.588Z,74.63
2023-10-26T13:48:56.726Z,83.18
2023-10-26T13:51:23.732Z,80.05
2023-10-26T13:53:50.596Z,85.78
2023-10-26T13:56:17.468Z,99.50
2023-10-26T13:58:44.205Z,101.38
2023-10-26T14:01:14.910Z,94.80
2023-10-26T14:03:42.489Z,110.72
2023-10-26T14:06:10.747Z,100.97
2023-10-26T14:08:37.895Z,111.85
2023-10-26T14:11:05.028Z,103.20
2023-10-26T14:13:32.505Z,102.75
2023-10-26T14:15:59.632Z,101.47
2023-10-26T14:18:26.599Z,121.45
2023-10-26T14:20:53.400Z,81.50
2023-10-26T14:23:20.866Z,98.57
2023-10-26T14:25:47.859Z,101.65
2023-10-26T14:28:14.678Z,95.28
2023-10-26T14:30:41.434Z,83.30
2023-10-26T14:33:08.482Z,81.13
2023-10-26T14:35:35.264Z,76.15
2023-10-26T14:38:02.655Z,76.60
2023-10-26T14:40:30.273Z,80.53
2023-10-26T14:42:57.734Z,84.50
2023-10-26T14:45:26.306Z,62.78
2023-10-26T14:47:53.288Z,75.43
2023-10-26T14:50:20.087Z,75.90
2023-10-26T14:52:46.921Z,97.47
2023-10-26T14:55:14.009Z,88.60
2023-10-26T14:57:40.971Z,90.85
2023-10-26T15:00:08.473Z,96.30
2023-10-26T15:02:35.522Z,97.07
2023-10-26T15:05:02.466Z,101.10
2023-10-26T15:07:29.165Z,106.68
2023-10-26T15:10:23.854Z,98.05
2023-10-26T15:12:43.304Z,93.68
2023-10-26T15:15:10.293Z,98.32
2023-10-26T15:17:37.248Z,98.07
2023-10-26T15:20:04.520Z,88.82
2023-10-26T15:22:31.396Z,98.10
2023-10-26T15:24:58.297Z,87.10
2023-10-26T15:27:25.182Z,91.78
2023-10-26T15:29:51.917Z,90.65
2023-10-26T15:32:21.684Z,92.63
2023-10-26T15:34:48.573Z,89.95
2023-10-26T15:37:16.331Z,94.43
2023-10-26T15:39:44.632Z,87.65
2023-10-26T15:42:15.955Z,95.30
2023-10-26T15:44:46.624Z,100.55
2023-10-26T15:47:15.029Z,92.80
2023-10-26T15:49:41.767Z,92.03
2023-10-26T15:52:08.805Z,95.45
2023-10-26T15:54:36.006Z,95.03
2023-10-26T15:57:03.260Z,95.20
2023-10-26T15:59:30.061Z,95.45
2023-10-26T16:01:56.830Z,86.43
2023-10-26T16:04:24.033Z,95.30
2023-10-26T16:06:51.388Z,105.15
2023-10-26T16:09:18.431Z,102.47
2023-10-26T16:11:45.304Z,123.65
2023-10-26T16:14:12.433Z,116.03
2023-10-26T16:16:39.260Z,107.45
2023-10-26T16:19:06.379Z,121.03
2023-10-26T16:21:33.224Z,124.40
2023-10-26T16:24:00.042Z,116.30
2023-10-26T16:26:27.012Z,134.00
2023-10-26T16:28:56.532Z,141.20
2023-10-26T16:31:23.524Z,145.70
2023-10-26T16:33:50.387Z,140.68
2023-10-26T16:36:17.388Z,140.35
2023-10-26T16:38:44.172Z,173.32
2023-10-26T16:41:11.042Z,172.27
2023-10-26T16:43:37.944Z,267.77
2023-10-26T16:46:04.877Z,290.75
2023-10-26T16:48:31.689Z,220.95
2023-10-26T16:51:00.753Z,216.82
2023-10-26T16:53:31.756Z,252.75
2023-10-26T16:56:04.167Z,225.15
2023-10-26T16:58:32.746Z,267.92
2023-10-26T17:01:00.055Z,286.75
2023-10-26T17:03:28.133Z,486.35
2023-10-26T17:05:55.346Z,352.17
2023-10-26T17:08:22.274Z,255.55
2023-10-26T17:10:49.633Z,291.08
2023-10-26T17:13:17.370Z,356.27
2023-10-26T17:15:45.451Z,361.45
2023-10-26T17:18:12.301Z,303.38
2023-10-26T17:20:39.126Z,243.48
2023-10-26T17:23:05.871Z,182.75
2023-10-26T17:25:36.389Z,325.50
2023-10-26T17:28:03.953Z,285.33
2023-10-26T17:30:31.132Z,333.20
2023-10-26T17:32:58.275Z,246.52
2023-10-26T17:35:25.513Z,250.90
2023-10-26T17:37:54.278Z,393.10
2023-10-26T17:40:23.570Z,318.77
2023-10-26T17:42:50.491Z,325.48
2023-10-26T17:45:18.962Z,267.98
2023-10-26T17:47:46.195Z,214.65
2023-10-26T17:50:13.068Z,215.75
2023-10-26T17:52:42.753Z,239.35
2023-10-26T17:55:10.056Z,523.00
2023-10-26T17:57:37.828Z,492.52
2023-10-26T18:00:05.298Z,515.88
2023-10-26T18:02:39.675Z,397.70
2023-10-26T18:05:07.128Z,422.67
2023-10-26T18:07:34.789Z,276.75
2023-10-26T18:10:01.605Z,299.27
2023-10-26T18:12:28.492Z,323.95
2023-10-26T18:14:55.422Z,281.67
2023-10-26T18:17:24.528Z,672.63
2023-10-26T18:19:51.331Z,473.20
2023-10-26T18:22:18.105Z,702.33
2023-10-26T18:24:45.057Z,664.70
2023-10-26T18:27:12.428Z,644.60
2023-10-26T18:29:39.193Z,513.50
2023-10-26T18:32:06.181Z,518.60
2023-10-26T18:34:34.840Z,488.38
2023-10-26T18:37:02.671Z,344.58
2023-10-26T18:39:29.494Z,289.48
2023-10-26T18:41:56.827Z,290.48
2023-10-26T18:44:23.557Z,138.05
2023-10-26T18:46:50.333Z,146.93
2023-10-26T18:49:17.366Z,137.40
2023-10-26T18:51:44.232Z,191.68
2023-10-26T18:54:11.053Z,187.75
2023-10-26T18:56:38.236Z,317.92
2023-10-26T18:59:05.215Z,260.35
2023-10-26T19:01:32.010Z,202.60
2023-10-26T19:04:02.898Z,193.05
2023-10-26T19:06:31.253Z,152.63
2023-10-26T19:08:59.936Z,218.77
2023-10-26T19:11:27.023Z,151.73
2023-10-26T19:13:54.018Z,170.43
2023-10-26T19:16:21.294Z,143.52
2023-10-26T19:18:48.242Z,144.75
2023-10-26T19:21:15.211Z,168.18
2023-10-26T19:23:42.699Z,144.32
2023-10-26T19:26:10.907Z,175.57
2023-10-26T19:28:37.794Z,206.13
2023-10-26T19:31:05.666Z,189.70
2023-10-26T19:33:32.512Z,167.57
2023-10-26T19:35:59.231Z,152.57
2023-10-26T19:38:28.494Z,165.80
2023-10-26T19:40:55.414Z,186.02
2023-10-26T19:43:22.351Z,180.18
2023-10-26T19:45:49.625Z,272.80
2023-10-26T19:48:17.626Z,195.73
2023-10-26T19:50:44.384Z,183.40
2023-10-26T19:53:11.098Z,246.43
2023-10-26T19:55:40.245Z,165.07
2023-10-26T19:58:07.761Z,186.82
2023-10-26T20:00:34.833Z,175.20
2023-10-26T20:03:01.723Z,189.00
2023-10-26T20:05:29.504Z,209.07
2023-10-26T20:07:56.210Z,197.18
2023-10-26T20:10:23.072Z,415.85
2023-10-26T20:12:49.844Z,368.30
2023-10-26T20:15:16.870Z,368.13
2023-10-26T20:17:43.719Z,253.32
2023-10-26T20:20:11.425Z,548.28
2023-10-26T20:22:38.197Z,575.50
2023-10-26T20:25:05.518Z,659.60
2023-10-26T20:27:32.700Z,599.30
2023-10-26T20:29:59.659Z,581.30
2023-10-26T20:32:26.906Z,509.08
2023-10-26T20:34:53.624Z,517.67
2023-10-26T20:37:20.585Z,537.58
2023-10-26T20:39:47.557Z,496.02
2023-10-26T20:42:14.346Z,386.70
2023-10-26T20:44:41.068Z,473.35
2023-10-26T20:47:07.937Z,386.52
2023-10-26T20:49:34.971Z,327.98
2023-10-26T20:52:01.856Z,393.85
2023-10-26T20:54:28.793Z,353.33
2023-10-26T20:56:55.525Z,371.48
2023-10-26T20:59:22.725Z,406.95
2023-10-26T21:01:49.528Z,239.98
2023-10-26T21:04:16.756Z,354.63
2023-10-26T21:06:47.392Z,403.33
2023-10-26T21:09:15.418Z,256.13
2023-10-26T21:11:42.246Z,165.57
2023-10-26T21:14:09.861Z,238.65
2023-10-26T21:16:36.791Z,242.80
2023-10-26T21:19:03.868Z,204.75
2023-10-26T21:21:31.078Z,162.35
2023-10-26T21:23:57.890Z,173.50
2023-10-26T21:26:24.700Z,193.20
2023-10-26T21:28:55.135Z,192.50
2023-10-26T21:31:24.769Z,309.95
2023-10-26T21:33:52.587Z,234.63
2023-10-26T21:36:21.158Z,229.98
2023-10-26T21:38:49.590Z,279.08
2023-10-26T21:41:16.423Z,389.63
2023-10-26T21:43:43.135Z,216.63
2023-10-26T21:46:10.015Z,331.27
2023-10-26T21:48:37.274Z,373.95
2023-10-26T21:51:08.326Z,471.77
2023-10-26T21:53:35.209Z,473.02
2023-10-26T21:56:01.924Z,581.40
2023-10-26T21:58:28.648Z,436.20
2023-10-26T22:00:55.459Z,537.92
2023-10-26T22:03:25.201Z,515.97
2023-10-26T22:05:51.933Z,577.30
2023-10-26T22:08:18.809Z,472.15
2023-10-26T22:10:45.695Z,715.28
2023-10-26T22:13:13.126Z,487.08
2023-10-26T22:15:39.931Z,408.20
2023-10-26T22:18:07.041Z,346.83
2023-10-26T22:20:36.801Z,281.98
2023-10-26T22:23:07.194Z,401.80
2023-10-26T22:25:34.106Z,416.52
2023-10-26T22:28:00.860Z,325.63
2023-10-26T22:30:27.938Z,539.17
2023-10-26T22:32:54.858Z,424.83
2023-10-26T22:35:21.633Z,462.33
2023-10-26T22:37:48.543Z,507.73
2023-10-26T22:40:15.516Z,493.92
2023-10-26T22:42:42.532Z,484.20
2023-10-26T22:45:09.611Z,450.55
2023-10-26T22:47:36.970Z,422.85
2023-10-26T22:50:04.634Z,402.85
2023-10-26T22:52:31.419Z,405.92
2023-10-26T22:55:00.450Z,351.17
2023-10-26T22:57:27.732Z,348.67
2023-10-26T22:59:59.594Z,457.95
2023-10-26T23:02:26.472Z,349.90
2023-10-26T23:04:55.970Z,338.63
2023-10-26T23:07:22.774Z,365.83
2023-10-26T23:09:49.535Z,262.52
2023-10-26T23:12:16.426Z,270.77
2023-10-26T23:14:43.677Z,277.52
2023-10-26T23:17:11.615Z,163.32
2023-10-26T23:19:38.551Z,232.07
2023-10-26T23:22:09.880Z,199.10
2023-10-26T23:24:38.869Z,201.63
2023-10-26T23:27:06.696Z,135.98
2023-10-26T23:29:33.849Z,214.80
2023-10-26T23:32:00.632Z,220.80
2023-10-26T23:34:28.833Z,188.73
2023-10-26T23:36:56.274Z,249.65
2023-10-26T23:39:23.165Z,292.55
2023-10-26T23:41:49.946Z,307.70
2023-10-26T23:44:16.653Z,303.05
2023-10-26T23:46:43.354Z,263.25
2023-10-26T23:49:10.247Z,236.43
2023-10-26T23:51:37.059Z,302.15
2023-10-26T23:54:03.984Z,158.88
2023-10-26T23:56:30.651Z,187.93
2023-10-26T23:58:57.402Z,188.15
